sensor_id;sensor_type;location;lat;lon;timestamp;P1;durP1;ratioP1;P2;durP2;ratioP2
62106;SDS011;48087;32.600;-97.100;2022-10-16T00:15:33;11;;;10;;
62106;SDS011;48087;32.600;-97.100;2022-10-16T00:16:42;10;;;9;;
62106;SDS011;48087;32.600;-97.100;2022-10-16T01:01:33;10;;;9;;
62106;SDS011;48087;32.600;-97.100;2022-10-16T01:24:06;10;;;9;;
62106;SDS011;48087;32.600;-97.100;2022-10-16T01:46:24;10;;;9;;
62106;SDS011;48087;32.600;-97.100;2022-10-16T02:08:49;11;;;10;;
62106;SDS011;48087;32.600;-97.100;2022-10-16T02:09:59;10;;;9;;
62106;SDS011;48087;32.600;-97.100;2022-10-16T02:32:23;12;;;11;;
62106;SDS011;48087;32.600;-97.100;2022-10-16T02:54:47;11;;;10;;
62106;SDS011;48087;32.600;-97.100;2022-10-16T03:17:13;11;;;10;;
62106;SDS011;48087;32.600;-97.100;2022-10-16T03:39:35;12;;;11;;
62106;SDS011;48087;32.600;-97.100;2022-10-16T03:40:44;13;;;12;;
62106;SDS011;48087;32.600;-97.100;2022-10-16T04:03:07;10;;;9;;
62106;SDS011;48087;32.600;-97.100;2022-10-16T04:26:40;12;;;11;;
62106;SDS011;48087;32.600;-97.100;2022-10-16T04:49:03;11;;;10;;
62106;SDS011;48087;32.600;-97.100;2022-10-16T05:11:27;11;;;10;;
62106;SDS011;48087;32.600;-97.100;2022-10-16T05:12:36;10;;;9;;
62106;SDS011;48087;32.600;-97.100;2022-10-16T05:34:59;12;;;11;;
62106;SDS011;48087;32.600;-97.100;2022-10-16T05:57:22;11;;;10;;
62106;SDS011;48087;32.600;-97.100;2022-10-16T06:19:46;12;;;11;;
62106;SDS011;48087;32.600;-97.100;2022-10-16T06:42:08;11;;;10;;
62106;SDS011;48087;32.600;-97.100;2022-10-16T06:43:17;11;;;10;;
62106;SDS011;48087;32.600;-97.100;2022-10-16T07:05:41;11;;;10;;
62106;SDS011;48087;32.600;-97.100;2022-10-16T07:06:49;12;;;11;;
62106;SDS011;48087;32.600;-97.100;2022-10-16T07:29:13;12;;;11;;
62106;SDS011;48087;32.600;-97.100;2022-10-16T07:51:35;11;;;10;;
62106;SDS011;48087;32.600;-97.100;2022-10-16T07:52:44;11;;;10;;
62106;SDS011;48087;32.600;-97.100;2022-10-16T08:15:07;11;;;10;;
62106;SDS011;48087;32.600;-97.100;2022-10-16T08:37:29;11;;;10;;
62106;SDS011;48087;32.600;-97.100;2022-10-16T08:59:52;11;;;10;;
62106;SDS011;48087;32.600;-97.100;2022-10-16T09:22:15;12;;;11;;
62106;SDS011;48087;32.600;-97.100;2022-10-16T09:44:37;11;;;10;;
62106;SDS011;48087;32.600;-97.100;2022-10-16T10:06:59;11;;;10;;
62106;SDS011;48087;32.600;-97.100;2022-10-16T10:08:12;11;;;10;;
62106;SDS011;48087;32.600;-97.100;2022-10-16T10:30:33;11;;;10;;
62106;SDS011;48087;32.600;-97.100;2022-10-16T10:31:41;12;;;11;;
62106;SDS011;48087;32.600;-97.100;2022-10-16T10:54:06;11;;;10;;
62106;SDS011;48087;32.600;-97.100;2022-10-16T11:16:26;6;;;6;;
62106;SDS011;48087;32.600;-97.100;2022-10-16T11:17:34;4;;;4;;
62106;SDS011;48087;32.600;-97.100;2022-10-16T11:39:55;4;;;4;;
62106;SDS011;48087;32.600;-97.100;2022-10-16T11:41:07;4;;;4;;
62106;SDS011;48087;32.600;-97.100;2022-10-16T12:03:26;4;;;4;;
62106;SDS011;48087;32.600;-97.100;2022-10-16T12:25:53;4;;;4;;
62106;SDS011;48087;32.600;-97.100;2022-10-16T12:26:54;4;;;4;;
62106;SDS011;48087;32.600;-97.100;2022-10-16T12:49:22;4;;;4;;
62106;SDS011;48087;32.600;-97.100;2022-10-16T13:11:39;5;;;5;;
62106;SDS011;48087;32.600;-97.100;2022-10-16T13:12:49;4;;;4;;
62106;SDS011;48087;32.600;-97.100;2022-10-16T13:35:03;4;;;4;;
62106;SDS011;48087;32.600;-97.100;2022-10-16T13:57:23;4;;;4;;
62106;SDS011;48087;32.600;-97.100;2022-10-16T14:19:45;5;;;5;;
62106;SDS011;48087;32.600;-97.100;2022-10-16T14:42:02;5;;;5;;
62106;SDS011;48087;32.600;-97.100;2022-10-16T15:04:22;4;;;4;;
62106;SDS011;48087;32.600;-97.100;2022-10-16T15:26:41;6;;;6;;
62106;SDS011;48087;32.600;-97.100;2022-10-16T15:27:51;5;;;5;;
62106;SDS011;48087;32.600;-97.100;2022-10-16T15:50:12;4;;;4;;
62106;SDS011;48087;32.600;-97.100;2022-10-16T15:51:20;4;;;4;;
62106;SDS011;48087;32.600;-97.100;2022-10-16T16:13:43;4;;;4;;
62106;SDS011;48087;32.600;-97.100;2022-10-16T16:36:06;4;;;4;;
62106;SDS011;48087;32.600;-97.100;2022-10-16T16:37:15;4;;;4;;
62106;SDS011;48087;32.600;-97.100;2022-10-16T16:59:37;4;;;4;;
62106;SDS011;48087;32.600;-97.100;2022-10-16T17:23:10;7;;;7;;
62106;SDS011;48087;32.600;-97.100;2022-10-16T17:45:35;9;;;9;;
62106;SDS011;48087;32.600;-97.100;2022-10-16T18:07:55;9;;;9;;
62106;SDS011;48087;32.600;-97.100;2022-10-16T18:09:05;9;;;9;;
62106;SDS011;48087;32.600;-97.100;2022-10-16T18:31:28;7;;;7;;
62106;SDS011;48087;32.600;-97.100;2022-10-16T18:53:53;7;;;7;;
62106;SDS011;48087;32.600;-97.100;2022-10-16T19:16:15;7;;;7;;
62106;SDS011;48087;32.600;-97.100;2022-10-16T19:38:37;7;;;7;;
62106;SDS011;48087;32.600;-97.100;2022-10-16T20:00:59;7;;;7;;
62106;SDS011;48087;32.600;-97.100;2022-10-16T20:23:22;6;;;6;;
62106;SDS011;48087;32.600;-97.100;2022-10-16T21:08:06;6;;;6;;
62106;SDS011;48087;32.600;-97.100;2022-10-16T21:30:28;8;;;8;;
62106;SDS011;48087;32.600;-97.100;2022-10-16T21:52:50;10;;;10;;
62106;SDS011;48087;32.600;-97.100;2022-10-16T22:15:12;9;;;9;;
62106;SDS011;48087;32.600;-97.100;2022-10-16T22:16:22;9;;;9;;
62106;SDS011;48087;32.600;-97.100;2022-10-16T22:38:42;7;;;7;;
62106;SDS011;48087;32.600;-97.100;2022-10-16T23:01:08;11;;;10;;
62106;SDS011;48087;32.600;-97.100;2022-10-16T23:23:25;10;;;10;;
62106;SDS011;48087;32.600;-97.100;2022-10-16T23:45:46;10;;;10;;
